sensor_id;sensor_type;location;lat;lon;timestamp;P1;durP1;ratioP1;P2;durP2;ratioP2
19675;SDS011;39539;52.202;9.876;2023-05-10T00:00:04;3.55;;;3.08;;
19675;SDS011;39539;52.202;9.876;2023-05-10T00:02:30;3.33;;;3.05;;
19675;SDS011;39539;52.202;9.876;2023-05-10T00:04:56;3.58;;;2.75;;
19675;SDS011;39539;52.202;9.876;2023-05-10T00:07:21;4.00;;;3.10;;
19675;SDS011;39539;52.202;9.876;2023-05-10T00:09:46;2.88;;;2.58;;
19675;SDS011;39539;52.202;9.876;2023-05-10T00:12:12;3.13;;;2.92;;
19675;SDS011;39539;52.202;9.876;2023-05-10T00:14:37;3.40;;;3.13;;
19675;SDS011;39539;52.202;9.876;2023-05-10T00:17:02;3.35;;;3.00;;
19675;SDS011;39539;52.202;9.876;2023-05-10T00:19:28;3.13;;;2.90;;
19675;SDS011;39539;52.202;9.876;2023-05-10T00:21:53;3.55;;;2.70;;
19675;SDS011;39539;52.202;9.876;2023-05-10T00:24:18;3.28;;;3.03;;
19675;SDS011;39539;52.202;9.876;2023-05-10T00:26:44;3.03;;;2.72;;
19675;SDS011;39539;52.202;9.876;2023-05-10T00:29:09;3.28;;;2.97;;
19675;SDS011;39539;52.202;9.876;2023-05-10T00:31:35;3.20;;;3.00;;
19675;SDS011;39539;52.202;9.876;2023-05-10T00:34:00;3.42;;;3.13;;
19675;SDS011;39539;52.202;9.876;2023-05-10T00:36:26;4.50;;;3.35;;
19675;SDS011;39539;52.202;9.876;2023-05-10T00:38:52;3.55;;;3.25;;
19675;SDS011;39539;52.202;9.876;2023-05-10T00:41:18;3.40;;;3.20;;
19675;SDS011;39539;52.202;9.876;2023-05-10T00:43:43;3.50;;;3.00;;
19675;SDS011;39539;52.202;9.876;2023-05-10T00:46:08;3.30;;;3.00;;
19675;SDS011;39539;52.202;9.876;2023-05-10T00:48:34;3.50;;;3.30;;
19675;SDS011;39539;52.202;9.876;2023-05-10T00:51:00;3.63;;;3.28;;
19675;SDS011;39539;52.202;9.876;2023-05-10T00:53:26;3.78;;;3.30;;
19675;SDS011;39539;52.202;9.876;2023-05-10T00:55:52;3.75;;;3.45;;
19675;SDS011;39539;52.202;9.876;2023-05-10T00:58:17;3.42;;;3.22;;
19675;SDS011;39539;52.202;9.876;2023-05-10T01:00:42;3.83;;;3.50;;
19675;SDS011;39539;52.202;9.876;2023-05-10T01:03:10;4.07;;;3.67;;
19675;SDS011;39539;52.202;9.876;2023-05-10T01:05:36;3.53;;;3.20;;
19675;SDS011;39539;52.202;9.876;2023-05-10T01:08:02;4.53;;;3.58;;
19675;SDS011;39539;52.202;9.876;2023-05-10T01:10:27;4.65;;;3.38;;
19675;SDS011;39539;52.202;9.876;2023-05-10T01:12:54;4.30;;;3.35;;
19675;SDS011;39539;52.202;9.876;2023-05-10T01:15:20;4.20;;;3.38;;
19675;SDS011;39539;52.202;9.876;2023-05-10T01:17:47;4.00;;;3.67;;
19675;SDS011;39539;52.202;9.876;2023-05-10T01:20:13;3.83;;;3.53;;
19675;SDS011;39539;52.202;9.876;2023-05-10T01:34:25;4.28;;;3.97;;
19675;SDS011;39539;52.202;9.876;2023-05-10T01:37:02;4.70;;;4.25;;
19675;SDS011;39539;52.202;9.876;2023-05-10T01:40:16;4.35;;;4.05;;
19675;SDS011;39539;52.202;9.876;2023-05-10T01:42:29;4.45;;;4.05;;
19675;SDS011;39539;52.202;9.876;2023-05-10T01:47:58;4.82;;;4.32;;
19675;SDS011;39539;52.202;9.876;2023-05-10T01:50:30;5.35;;;4.10;;
19675;SDS011;39539;52.202;9.876;2023-05-10T01:52:57;5.85;;;4.00;;
19675;SDS011;39539;52.202;9.876;2023-05-10T01:55:25;4.70;;;4.35;;
19675;SDS011;39539;52.202;9.876;2023-05-10T01:58:02;4.45;;;4.15;;
19675;SDS011;39539;52.202;9.876;2023-05-10T02:00:33;4.47;;;4.18;;
19675;SDS011;39539;52.202;9.876;2023-05-10T02:03:00;4.85;;;4.53;;
19675;SDS011;39539;52.202;9.876;2023-05-10T02:05:29;4.50;;;4.10;;
19675;SDS011;39539;52.202;9.876;2023-05-10T02:07:57;4.63;;;4.22;;
19675;SDS011;39539;52.202;9.876;2023-05-10T02:10:23;4.43;;;4.03;;
19675;SDS011;39539;52.202;9.876;2023-05-10T02:12:49;4.68;;;4.38;;
19675;SDS011;39539;52.202;9.876;2023-05-10T02:15:17;4.28;;;3.97;;
19675;SDS011;39539;52.202;9.876;2023-05-10T02:17:46;4.00;;;3.60;;
19675;SDS011;39539;52.202;9.876;2023-05-10T02:20:12;4.15;;;3.85;;
19675;SDS011;39539;52.202;9.876;2023-05-10T02:22:39;3.78;;;3.47;;
19675;SDS011;39539;52.202;9.876;2023-05-10T02:25:05;4.03;;;3.72;;
19675;SDS011;39539;52.202;9.876;2023-05-10T02:27:33;4.30;;;3.97;;
19675;SDS011;39539;52.202;9.876;2023-05-10T02:29:58;4.28;;;3.88;;
19675;SDS011;39539;52.202;9.876;2023-05-10T02:32:24;4.22;;;3.78;;
19675;SDS011;39539;52.202;9.876;2023-05-10T02:34:52;4.53;;;4.13;;
19675;SDS011;39539;52.202;9.876;2023-05-10T02:37:19;4.60;;;4.30;;
19675;SDS011;39539;52.202;9.876;2023-05-10T02:39:49;4.75;;;4.40;;
19675;SDS011;39539;52.202;9.876;2023-05-10T02:42:18;4.55;;;4.25;;
19675;SDS011;39539;52.202;9.876;2023-05-10T02:44:47;4.15;;;3.75;;
19675;SDS011;39539;52.202;9.876;2023-05-10T02:47:15;4.43;;;3.85;;
19675;SDS011;39539;52.202;9.876;2023-05-10T02:49:41;4.40;;;4.00;;
19675;SDS011;39539;52.202;9.876;2023-05-10T02:52:07;4.55;;;4.25;;
19675;SDS011;39539;52.202;9.876;2023-05-10T02:54:39;3.72;;;3.53;;
19675;SDS011;39539;52.202;9.876;2023-05-10T02:57:09;4.28;;;3.97;;
19675;SDS011;39539;52.202;9.876;2023-05-10T02:59:39;4.70;;;4.30;;
19675;SDS011;39539;52.202;9.876;2023-05-10T03:02:05;4.68;;;4.38;;
19675;SDS011;39539;52.202;9.876;2023-05-10T03:04:31;5.45;;;5.00;;
19675;SDS011;39539;52.202;9.876;2023-05-10T03:06:56;5.68;;;5.15;;
19675;SDS011;39539;52.202;9.876;2023-05-10T03:09:22;5.32;;;4.93;;
19675;SDS011;39539;52.202;9.876;2023-05-10T03:11:55;5.60;;;5.10;;
19675;SDS011;39539;52.202;9.876;2023-05-10T03:14:30;5.10;;;4.80;;
19675;SDS011;39539;52.202;9.876;2023-05-10T03:17:10;5.90;;;5.40;;
19675;SDS011;39539;52.202;9.876;2023-05-10T03:19:47;5.47;;;5.07;;
19675;SDS011;39539;52.202;9.876;2023-05-10T03:22:16;5.72;;;5.18;;
19675;SDS011;39539;52.202;9.876;2023-05-10T03:24:48;7.55;;;6.07;;
19675;SDS011;39539;52.202;9.876;2023-05-10T03:27:14;5.97;;;5.57;;
19675;SDS011;39539;52.202;9.876;2023-05-10T03:29:40;6.10;;;5.68;;
19675;SDS011;39539;52.202;9.876;2023-05-10T03:32:07;6.15;;;5.75;;
19675;SDS011;39539;52.202;9.876;2023-05-10T03:34:33;6.35;;;5.85;;
19675;SDS011;39539;52.202;9.876;2023-05-10T03:36:58;6.43;;;5.85;;
19675;SDS011;39539;52.202;9.876;2023-05-10T03:39:25;6.57;;;6.00;;
19675;SDS011;39539;52.202;9.876;2023-05-10T03:41:50;6.53;;;6.00;;
19675;SDS011;39539;52.202;9.876;2023-05-10T03:44:16;7.47;;;6.88;;
19675;SDS011;39539;52.202;9.876;2023-05-10T03:46:41;6.65;;;6.05;;
19675;SDS011;39539;52.202;9.876;2023-05-10T03:49:06;7.45;;;6.95;;
19675;SDS011;39539;52.202;9.876;2023-05-10T03:51:31;7.10;;;6.60;;
19675;SDS011;39539;52.202;9.876;2023-05-10T03:53:57;7.68;;;7.07;;
19675;SDS011;39539;52.202;9.876;2023-05-10T03:56:22;7.25;;;6.80;;
19675;SDS011;39539;52.202;9.876;2023-05-10T03:58:48;7.13;;;6.63;;
19675;SDS011;39539;52.202;9.876;2023-05-10T04:01:13;7.78;;;7.07;;
19675;SDS011;39539;52.202;9.876;2023-05-10T04:03:38;7.45;;;6.95;;
19675;SDS011;39539;52.202;9.876;2023-05-10T04:06:04;8.02;;;7.43;;
19675;SDS011;39539;52.202;9.876;2023-05-10T04:08:30;5.85;;;5.38;;
19675;SDS011;39539;52.202;9.876;2023-05-10T04:11:09;6.85;;;4.88;;
19675;SDS011;39539;52.202;9.876;2023-05-10T04:13:36;6.68;;;6.10;;
19675;SDS011;39539;52.202;9.876;2023-05-10T04:16:02;6.07;;;5.68;;
19675;SDS011;39539;52.202;9.876;2023-05-10T04:18:27;6.20;;;5.78;;
19675;SDS011;39539;52.202;9.876;2023-05-10T04:20:53;6.57;;;6.07;;
19675;SDS011;39539;52.202;9.876;2023-05-10T04:23:18;6.18;;;5.68;;
19675;SDS011;39539;52.202;9.876;2023-05-10T04:25:44;6.38;;;5.88;;
19675;SDS011;39539;52.202;9.876;2023-05-10T04:28:09;6.93;;;5.72;;
19675;SDS011;39539;52.202;9.876;2023-05-10T04:30:34;7.78;;;7.18;;
19675;SDS011;39539;52.202;9.876;2023-05-10T04:33:00;8.13;;;7.53;;
19675;SDS011;39539;52.202;9.876;2023-05-10T04:35:26;8.73;;;8.02;;
19675;SDS011;39539;52.202;9.876;2023-05-10T04:37:53;8.05;;;7.45;;
19675;SDS011;39539;52.202;9.876;2023-05-10T04:40:18;8.32;;;7.70;;
19675;SDS011;39539;52.202;9.876;2023-05-10T04:42:43;8.38;;;7.88;;
19675;SDS011;39539;52.202;9.876;2023-05-10T04:45:09;9.30;;;8.50;;
19675;SDS011;39539;52.202;9.876;2023-05-10T04:47:35;9.65;;;8.85;;
19675;SDS011;39539;52.202;9.876;2023-05-10T04:50:02;8.32;;;7.82;;
19675;SDS011;39539;52.202;9.876;2023-05-10T04:52:27;9.32;;;8.55;;
19675;SDS011;39539;52.202;9.876;2023-05-10T04:54:53;7.90;;;7.40;;
19675;SDS011;39539;52.202;9.876;2023-05-10T04:57:18;8.13;;;7.47;;
19675;SDS011;39539;52.202;9.876;2023-05-10T04:59:43;7.40;;;6.95;;
19675;SDS011;39539;52.202;9.876;2023-05-10T05:02:09;7.35;;;6.75;;
19675;SDS011;39539;52.202;9.876;2023-05-10T05:04:34;7.75;;;7.20;;
19675;SDS011;39539;52.202;9.876;2023-05-10T05:07:00;8.15;;;7.43;;
19675;SDS011;39539;52.202;9.876;2023-05-10T05:09:25;8.02;;;7.53;;
19675;SDS011;39539;52.202;9.876;2023-05-10T05:11:51;8.02;;;7.38;;
19675;SDS011;39539;52.202;9.876;2023-05-10T05:14:17;6.68;;;6.18;;
19675;SDS011;39539;52.202;9.876;2023-05-10T05:16:42;6.60;;;6.20;;
19675;SDS011;39539;52.202;9.876;2023-05-10T05:19:07;6.38;;;5.88;;
19675;SDS011;39539;52.202;9.876;2023-05-10T05:21:33;7.00;;;6.15;;
19675;SDS011;39539;52.202;9.876;2023-05-10T05:23:58;6.63;;;6.22;;
19675;SDS011;39539;52.202;9.876;2023-05-10T05:26:23;7.32;;;6.78;;
19675;SDS011;39539;52.202;9.876;2023-05-10T05:28:48;6.35;;;5.95;;
19675;SDS011;39539;52.202;9.876;2023-05-10T05:31:17;7.25;;;6.75;;
19675;SDS011;39539;52.202;9.876;2023-05-10T05:33:42;7.38;;;6.70;;
19675;SDS011;39539;52.202;9.876;2023-05-10T05:36:08;6.68;;;6.28;;
19675;SDS011;39539;52.202;9.876;2023-05-10T05:38:34;7.47;;;6.97;;
19675;SDS011;39539;52.202;9.876;2023-05-10T05:40:59;7.57;;;6.88;;
19675;SDS011;39539;52.202;9.876;2023-05-10T05:43:24;7.68;;;7.15;;
19675;SDS011;39539;52.202;9.876;2023-05-10T05:45:51;6.97;;;6.47;;
19675;SDS011;39539;52.202;9.876;2023-05-10T05:48:18;7.38;;;6.88;;
19675;SDS011;39539;52.202;9.876;2023-05-10T05:50:44;7.65;;;7.15;;
19675;SDS011;39539;52.202;9.876;2023-05-10T05:53:10;7.30;;;6.80;;
19675;SDS011;39539;52.202;9.876;2023-05-10T05:55:36;7.88;;;7.28;;
19675;SDS011;39539;52.202;9.876;2023-05-10T05:58:01;7.63;;;7.13;;
19675;SDS011;39539;52.202;9.876;2023-05-10T06:00:27;7.30;;;6.80;;
19675;SDS011;39539;52.202;9.876;2023-05-10T06:02:53;7.13;;;6.53;;
19675;SDS011;39539;52.202;9.876;2023-05-10T06:05:18;7.38;;;6.80;;
19675;SDS011;39539;52.202;9.876;2023-05-10T06:07:43;6.70;;;6.30;;
19675;SDS011;39539;52.202;9.876;2023-05-10T06:10:09;6.60;;;6.10;;
19675;SDS011;39539;52.202;9.876;2023-05-10T06:12:35;6.55;;;6.05;;
19675;SDS011;39539;52.202;9.876;2023-05-10T06:15:01;6.65;;;6.25;;
19675;SDS011;39539;52.202;9.876;2023-05-10T06:17:27;6.95;;;6.35;;
19675;SDS011;39539;52.202;9.876;2023-05-10T06:19:53;7.30;;;6.70;;
19675;SDS011;39539;52.202;9.876;2023-05-10T06:22:19;7.65;;;7.15;;
19675;SDS011;39539;52.202;9.876;2023-05-10T06:24:46;7.18;;;6.68;;
19675;SDS011;39539;52.202;9.876;2023-05-10T06:27:12;7.13;;;6.63;;
19675;SDS011;39539;52.202;9.876;2023-05-10T06:29:37;7.30;;;6.80;;
19675;SDS011;39539;52.202;9.876;2023-05-10T06:32:03;8.00;;;7.40;;
19675;SDS011;39539;52.202;9.876;2023-05-10T06:34:28;7.15;;;6.65;;
19675;SDS011;39539;52.202;9.876;2023-05-10T06:36:54;7.35;;;6.85;;
19675;SDS011;39539;52.202;9.876;2023-05-10T06:39:19;7.03;;;6.63;;
19675;SDS011;39539;52.202;9.876;2023-05-10T06:41:45;6.90;;;6.47;;
19675;SDS011;39539;52.202;9.876;2023-05-10T06:44:10;7.78;;;7.18;;
19675;SDS011;39539;52.202;9.876;2023-05-10T06:46:36;7.25;;;6.75;;
19675;SDS011;39539;52.202;9.876;2023-05-10T06:49:02;7.13;;;6.63;;
19675;SDS011;39539;52.202;9.876;2023-05-10T06:51:28;6.47;;;6.07;;
19675;SDS011;39539;52.202;9.876;2023-05-10T06:53:53;6.30;;;5.85;;
19675;SDS011;39539;52.202;9.876;2023-05-10T06:56:19;6.57;;;6.07;;
19675;SDS011;39539;52.202;9.876;2023-05-10T06:58:46;6.78;;;6.25;;
19675;SDS011;39539;52.202;9.876;2023-05-10T07:01:12;9.20;;;8.45;;
19675;SDS011;39539;52.202;9.876;2023-05-10T07:03:38;6.40;;;6.00;;
19675;SDS011;39539;52.202;9.876;2023-05-10T07:06:03;5.95;;;5.55;;
19675;SDS011;39539;52.202;9.876;2023-05-10T07:08:32;7.10;;;6.60;;
19675;SDS011;39539;52.202;9.876;2023-05-10T07:11:02;6.32;;;5.82;;
19675;SDS011;39539;52.202;9.876;2023-05-10T07:13:29;6.03;;;5.63;;
19675;SDS011;39539;52.202;9.876;2023-05-10T07:15:55;6.28;;;5.80;;
19675;SDS011;39539;52.202;9.876;2023-05-10T07:18:21;6.60;;;5.93;;
19675;SDS011;39539;52.202;9.876;2023-05-10T07:20:46;6.25;;;5.85;;
19675;SDS011;39539;52.202;9.876;2023-05-10T07:23:11;6.40;;;6.00;;
19675;SDS011;39539;52.202;9.876;2023-05-10T07:25:37;6.03;;;5.63;;
19675;SDS011;39539;52.202;9.876;2023-05-10T07:28:04;5.43;;;5.13;;
19675;SDS011;39539;52.202;9.876;2023-05-10T07:30:29;5.28;;;4.88;;
19675;SDS011;39539;52.202;9.876;2023-05-10T07:32:57;4.75;;;4.43;;
19675;SDS011;39539;52.202;9.876;2023-05-10T07:35:22;5.50;;;5.00;;
19675;SDS011;39539;52.202;9.876;2023-05-10T07:37:47;4.55;;;4.28;;
19675;SDS011;39539;52.202;9.876;2023-05-10T07:40:13;5.22;;;4.85;;
19675;SDS011;39539;52.202;9.876;2023-05-10T07:42:38;8.05;;;7.45;;
19675;SDS011;39539;52.202;9.876;2023-05-10T07:45:04;5.47;;;5.07;;
19675;SDS011;39539;52.202;9.876;2023-05-10T07:47:30;4.85;;;4.55;;
19675;SDS011;39539;52.202;9.876;2023-05-10T07:49:55;4.88;;;4.57;;
19675;SDS011;39539;52.202;9.876;2023-05-10T07:52:20;5.13;;;4.82;;
19675;SDS011;39539;52.202;9.876;2023-05-10T07:54:46;4.85;;;4.45;;
19675;SDS011;39539;52.202;9.876;2023-05-10T07:57:11;4.97;;;4.68;;
19675;SDS011;39539;52.202;9.876;2023-05-10T07:59:39;4.60;;;4.30;;
19675;SDS011;39539;52.202;9.876;2023-05-10T08:02:05;5.20;;;4.80;;
19675;SDS011;39539;52.202;9.876;2023-05-10T08:04:31;4.88;;;4.57;;
19675;SDS011;39539;52.202;9.876;2023-05-10T08:06:56;4.32;;;4.13;;
19675;SDS011;39539;52.202;9.876;2023-05-10T08:09:21;4.40;;;4.20;;
19675;SDS011;39539;52.202;9.876;2023-05-10T08:11:48;4.50;;;4.13;;
19675;SDS011;39539;52.202;9.876;2023-05-10T08:14:16;4.55;;;4.25;;
19675;SDS011;39539;52.202;9.876;2023-05-10T08:16:42;3.90;;;3.70;;
19675;SDS011;39539;52.202;9.876;2023-05-10T08:19:07;3.67;;;3.47;;
19675;SDS011;39539;52.202;9.876;2023-05-10T08:21:32;4.80;;;4.50;;
19675;SDS011;39539;52.202;9.876;2023-05-10T08:23:58;3.72;;;3.53;;
19675;SDS011;39539;52.202;9.876;2023-05-10T08:26:23;4.03;;;3.72;;
19675;SDS011;39539;52.202;9.876;2023-05-10T08:28:49;4.10;;;3.70;;
19675;SDS011;39539;52.202;9.876;2023-05-10T08:31:14;3.65;;;3.45;;
19675;SDS011;39539;52.202;9.876;2023-05-10T08:33:40;3.70;;;3.50;;
19675;SDS011;39539;52.202;9.876;2023-05-10T08:36:06;3.45;;;3.25;;
19675;SDS011;39539;52.202;9.876;2023-05-10T08:38:31;3.15;;;2.95;;
19675;SDS011;39539;52.202;9.876;2023-05-10T08:40:57;3.20;;;3.03;;
19675;SDS011;39539;52.202;9.876;2023-05-10T08:43:26;2.00;;;1.90;;
19675;SDS011;39539;52.202;9.876;2023-05-10T08:45:54;1.08;;;1.08;;
19675;SDS011;39539;52.202;9.876;2023-05-10T08:48:20;1.38;;;1.27;;
19675;SDS011;39539;52.202;9.876;2023-05-10T08:50:48;1.38;;;1.38;;
19675;SDS011;39539;52.202;9.876;2023-05-10T08:53:18;1.25;;;1.25;;
19675;SDS011;39539;52.202;9.876;2023-05-10T08:55:44;1.50;;;1.40;;
19675;SDS011;39539;52.202;9.876;2023-05-10T08:58:10;0.95;;;0.95;;
19675;SDS011;39539;52.202;9.876;2023-05-10T09:00:36;1.10;;;1.10;;
19675;SDS011;39539;52.202;9.876;2023-05-10T09:03:02;1.05;;;0.90;;
19675;SDS011;39539;52.202;9.876;2023-05-10T09:05:29;0.88;;;0.70;;
19675;SDS011;39539;52.202;9.876;2023-05-10T09:07:55;0.68;;;0.68;;
19675;SDS011;39539;52.202;9.876;2023-05-10T09:10:20;0.65;;;0.63;;
19675;SDS011;39539;52.202;9.876;2023-05-10T09:12:47;0.55;;;0.55;;
19675;SDS011;39539;52.202;9.876;2023-05-10T09:15:14;0.80;;;0.70;;
19675;SDS011;39539;52.202;9.876;2023-05-10T09:17:41;0.80;;;0.80;;
19675;SDS011;39539;52.202;9.876;2023-05-10T09:20:07;0.65;;;0.65;;
19675;SDS011;39539;52.202;9.876;2023-05-10T09:22:33;1.08;;;0.70;;
19675;SDS011;39539;52.202;9.876;2023-05-10T09:27:39;1.17;;;0.60;;
19675;SDS011;39539;52.202;9.876;2023-05-10T09:30:06;0.40;;;0.40;;
19675;SDS011;39539;52.202;9.876;2023-05-10T09:32:39;0.40;;;0.40;;
19675;SDS011;39539;52.202;9.876;2023-05-10T09:35:06;0.65;;;0.50;;
19675;SDS011;39539;52.202;9.876;2023-05-10T09:37:33;0.80;;;0.60;;
19675;SDS011;39539;52.202;9.876;2023-05-10T09:39:58;0.60;;;0.60;;
19675;SDS011;39539;52.202;9.876;2023-05-10T09:42:24;0.60;;;0.60;;
19675;SDS011;39539;52.202;9.876;2023-05-10T09:44:49;1.02;;;0.60;;
19675;SDS011;39539;52.202;9.876;2023-05-10T09:47:17;0.52;;;0.52;;
19675;SDS011;39539;52.202;9.876;2023-05-10T09:49:44;0.50;;;0.50;;
19675;SDS011;39539;52.202;9.876;2023-05-10T09:52:14;0.60;;;0.60;;
19675;SDS011;39539;52.202;9.876;2023-05-10T09:54:42;0.70;;;0.70;;
19675;SDS011;39539;52.202;9.876;2023-05-10T09:57:21;0.60;;;0.60;;
19675;SDS011;39539;52.202;9.876;2023-05-10T09:59:48;1.20;;;1.10;;
19675;SDS011;39539;52.202;9.876;2023-05-10T10:02:14;1.90;;;1.00;;
19675;SDS011;39539;52.202;9.876;2023-05-10T10:04:40;0.80;;;0.80;;
19675;SDS011;39539;52.202;9.876;2023-05-10T10:07:06;1.25;;;0.88;;
19675;SDS011;39539;52.202;9.876;2023-05-10T10:09:32;1.40;;;1.00;;
19675;SDS011;39539;52.202;9.876;2023-05-10T10:11:59;0.80;;;0.73;;
19675;SDS011;39539;52.202;9.876;2023-05-10T10:14:25;0.80;;;0.80;;
19675;SDS011;39539;52.202;9.876;2023-05-10T10:16:51;0.95;;;0.80;;
19675;SDS011;39539;52.202;9.876;2023-05-10T10:19:20;0.60;;;0.60;;
19675;SDS011;39539;52.202;9.876;2023-05-10T10:21:47;0.88;;;0.80;;
19675;SDS011;39539;52.202;9.876;2023-05-10T10:24:14;1.52;;;0.90;;
19675;SDS011;39539;52.202;9.876;2023-05-10T10:26:39;0.80;;;0.80;;
19675;SDS011;39539;52.202;9.876;2023-05-10T10:31:40;1.30;;;1.20;;
19675;SDS011;39539;52.202;9.876;2023-05-10T10:34:32;1.20;;;1.20;;
19675;SDS011;39539;52.202;9.876;2023-05-10T10:36:57;1.35;;;1.30;;
19675;SDS011;39539;52.202;9.876;2023-05-10T10:39:28;1.30;;;1.20;;
19675;SDS011;39539;52.202;9.876;2023-05-10T10:41:55;1.23;;;1.20;;
19675;SDS011;39539;52.202;9.876;2023-05-10T10:49:25;1.60;;;1.50;;
19675;SDS011;39539;52.202;9.876;2023-05-10T10:54:59;1.90;;;1.80;;
19675;SDS011;39539;52.202;9.876;2023-05-10T10:57:42;2.03;;;1.92;;
19675;SDS011;39539;52.202;9.876;2023-05-10T11:07:58;4.60;;;4.20;;
19675;SDS011;39539;52.202;9.876;2023-05-10T11:10:25;3.40;;;3.10;;
19675;SDS011;39539;52.202;9.876;2023-05-10T11:15:40;2.08;;;1.83;;
19675;SDS011;39539;52.202;9.876;2023-05-10T11:18:17;2.38;;;2.17;;
19675;SDS011;39539;52.202;9.876;2023-05-10T11:20:44;2.83;;;2.22;;
19675;SDS011;39539;52.202;9.876;2023-05-10T11:23:15;2.28;;;2.08;;
19675;SDS011;39539;52.202;9.876;2023-05-10T11:25:43;2.67;;;2.40;;
19675;SDS011;39539;52.202;9.876;2023-05-10T11:28:12;2.75;;;2.55;;
19675;SDS011;39539;52.202;9.876;2023-05-10T11:30:47;2.88;;;2.67;;
19675;SDS011;39539;52.202;9.876;2023-05-10T11:33:16;2.15;;;2.05;;
19675;SDS011;39539;52.202;9.876;2023-05-10T11:35:42;2.47;;;2.30;;
19675;SDS011;39539;52.202;9.876;2023-05-10T11:38:08;2.97;;;2.35;;
19675;SDS011;39539;52.202;9.876;2023-05-10T11:40:36;2.58;;;2.30;;
19675;SDS011;39539;52.202;9.876;2023-05-10T11:43:02;3.13;;;2.42;;
19675;SDS011;39539;52.202;9.876;2023-05-10T11:45:28;2.63;;;2.10;;
19675;SDS011;39539;52.202;9.876;2023-05-10T11:47:59;2.92;;;2.30;;
19675;SDS011;39539;52.202;9.876;2023-05-10T11:50:25;2.42;;;2.22;;
19675;SDS011;39539;52.202;9.876;2023-05-10T11:52:54;2.70;;;2.50;;
19675;SDS011;39539;52.202;9.876;2023-05-10T11:55:20;2.92;;;2.65;;
19675;SDS011;39539;52.202;9.876;2023-05-10T11:57:46;2.55;;;2.30;;
19675;SDS011;39539;52.202;9.876;2023-05-10T12:00:12;2.60;;;2.25;;
19675;SDS011;39539;52.202;9.876;2023-05-10T12:02:38;2.67;;;2.47;;
19675;SDS011;39539;52.202;9.876;2023-05-10T12:05:07;4.10;;;2.90;;
19675;SDS011;39539;52.202;9.876;2023-05-10T12:07:33;3.10;;;2.80;;
19675;SDS011;39539;52.202;9.876;2023-05-10T12:10:06;3.25;;;2.95;;
19675;SDS011;39539;52.202;9.876;2023-05-10T12:12:42;2.83;;;2.60;;
19675;SDS011;39539;52.202;9.876;2023-05-10T12:17:45;2.47;;;2.28;;
19675;SDS011;39539;52.202;9.876;2023-05-10T12:20:21;2.40;;;2.20;;
19675;SDS011;39539;52.202;9.876;2023-05-10T12:22:52;2.30;;;2.10;;
19675;SDS011;39539;52.202;9.876;2023-05-10T12:25:19;3.85;;;2.10;;
19675;SDS011;39539;52.202;9.876;2023-05-10T12:27:50;2.35;;;2.00;;
19675;SDS011;39539;52.202;9.876;2023-05-10T12:30:20;2.20;;;2.10;;
19675;SDS011;39539;52.202;9.876;2023-05-10T12:32:47;3.58;;;3.22;;
19675;SDS011;39539;52.202;9.876;2023-05-10T12:35:12;3.63;;;3.20;;
19675;SDS011;39539;52.202;9.876;2023-05-10T12:37:38;5.03;;;4.63;;
19675;SDS011;39539;52.202;9.876;2023-05-10T12:40:06;5.10;;;4.70;;
19675;SDS011;39539;52.202;9.876;2023-05-10T12:42:37;5.40;;;4.90;;
19675;SDS011;39539;52.202;9.876;2023-05-10T12:45:06;4.32;;;3.95;;
19675;SDS011;39539;52.202;9.876;2023-05-10T12:47:33;4.70;;;4.30;;
19675;SDS011;39539;52.202;9.876;2023-05-10T12:50:00;4.63;;;3.88;;
19675;SDS011;39539;52.202;9.876;2023-05-10T12:52:27;3.80;;;3.50;;
19675;SDS011;39539;52.202;9.876;2023-05-10T12:54:52;2.97;;;2.78;;
19675;SDS011;39539;52.202;9.876;2023-05-10T12:57:18;3.42;;;3.15;;
19675;SDS011;39539;52.202;9.876;2023-05-10T12:59:45;1.88;;;1.60;;
19675;SDS011;39539;52.202;9.876;2023-05-10T13:02:10;2.13;;;1.90;;
19675;SDS011;39539;52.202;9.876;2023-05-10T13:04:36;2.33;;;2.10;;
19675;SDS011;39539;52.202;9.876;2023-05-10T13:07:07;2.50;;;2.30;;
19675;SDS011;39539;52.202;9.876;2023-05-10T13:09:34;2.45;;;2.28;;
19675;SDS011;39539;52.202;9.876;2023-05-10T13:11:59;1.92;;;1.83;;
19675;SDS011;39539;52.202;9.876;2023-05-10T13:14:25;2.08;;;1.98;;
19675;SDS011;39539;52.202;9.876;2023-05-10T13:16:51;2.30;;;1.75;;
19675;SDS011;39539;52.202;9.876;2023-05-10T13:19:17;2.55;;;2.10;;
19675;SDS011;39539;52.202;9.876;2023-05-10T13:21:42;1.58;;;1.48;;
19675;SDS011;39539;52.202;9.876;2023-05-10T13:24:09;1.40;;;1.30;;
19675;SDS011;39539;52.202;9.876;2023-05-10T13:26:35;1.85;;;1.67;;
19675;SDS011;39539;52.202;9.876;2023-05-10T13:29:02;1.58;;;1.48;;
19675;SDS011;39539;52.202;9.876;2023-05-10T13:31:28;1.60;;;1.50;;
19675;SDS011;39539;52.202;9.876;2023-05-10T13:33:53;1.58;;;1.48;;
19675;SDS011;39539;52.202;9.876;2023-05-10T13:36:19;1.92;;;1.83;;
19675;SDS011;39539;52.202;9.876;2023-05-10T13:38:44;1.60;;;1.50;;
19675;SDS011;39539;52.202;9.876;2023-05-10T13:41:10;2.53;;;1.40;;
19675;SDS011;39539;52.202;9.876;2023-05-10T13:43:36;1.38;;;1.27;;
19675;SDS011;39539;52.202;9.876;2023-05-10T13:46:01;1.50;;;1.40;;
19675;SDS011;39539;52.202;9.876;2023-05-10T13:48:27;1.60;;;1.15;;
19675;SDS011;39539;52.202;9.876;2023-05-10T13:50:53;1.23;;;1.23;;
19675;SDS011;39539;52.202;9.876;2023-05-10T13:53:20;2.17;;;1.50;;
19675;SDS011;39539;52.202;9.876;2023-05-10T13:55:46;1.50;;;1.40;;
19675;SDS011;39539;52.202;9.876;2023-05-10T13:58:12;1.70;;;1.60;;
19675;SDS011;39539;52.202;9.876;2023-05-10T14:00:37;1.90;;;1.80;;
19675;SDS011;39539;52.202;9.876;2023-05-10T14:03:03;1.88;;;1.77;;
19675;SDS011;39539;52.202;9.876;2023-05-10T14:05:30;1.73;;;1.63;;
19675;SDS011;39539;52.202;9.876;2023-05-10T14:07:55;1.70;;;1.60;;
19675;SDS011;39539;52.202;9.876;2023-05-10T14:10:21;1.63;;;1.52;;
19675;SDS011;39539;52.202;9.876;2023-05-10T14:12:46;1.55;;;1.45;;
19675;SDS011;39539;52.202;9.876;2023-05-10T14:15:12;2.42;;;1.85;;
19675;SDS011;39539;52.202;9.876;2023-05-10T14:17:37;1.75;;;1.65;;
19675;SDS011;39539;52.202;9.876;2023-05-10T14:20:04;2.20;;;2.00;;
19675;SDS011;39539;52.202;9.876;2023-05-10T14:22:30;2.15;;;2.05;;
19675;SDS011;39539;52.202;9.876;2023-05-10T14:24:55;2.22;;;2.13;;
19675;SDS011;39539;52.202;9.876;2023-05-10T14:27:21;1.80;;;1.70;;
19675;SDS011;39539;52.202;9.876;2023-05-10T14:29:47;2.42;;;2.00;;
19675;SDS011;39539;52.202;9.876;2023-05-10T14:32:12;3.13;;;1.77;;
19675;SDS011;39539;52.202;9.876;2023-05-10T14:34:38;2.63;;;1.85;;
19675;SDS011;39539;52.202;9.876;2023-05-10T14:37:03;2.30;;;2.08;;
19675;SDS011;39539;52.202;9.876;2023-05-10T14:39:29;2.22;;;2.03;;
19675;SDS011;39539;52.202;9.876;2023-05-10T14:41:55;1.90;;;1.80;;
19675;SDS011;39539;52.202;9.876;2023-05-10T14:44:20;3.05;;;2.70;;
19675;SDS011;39539;52.202;9.876;2023-05-10T14:46:46;2.40;;;2.30;;
19675;SDS011;39539;52.202;9.876;2023-05-10T14:49:13;4.28;;;2.25;;
19675;SDS011;39539;52.202;9.876;2023-05-10T14:51:38;2.70;;;2.50;;
19675;SDS011;39539;52.202;9.876;2023-05-10T14:54:04;1.80;;;1.70;;
19675;SDS011;39539;52.202;9.876;2023-05-10T14:56:29;2.05;;;1.95;;
19675;SDS011;39539;52.202;9.876;2023-05-10T14:58:55;2.30;;;2.10;;
19675;SDS011;39539;52.202;9.876;2023-05-10T15:01:20;2.40;;;2.20;;
19675;SDS011;39539;52.202;9.876;2023-05-10T15:03:46;3.22;;;2.72;;
19675;SDS011;39539;52.202;9.876;2023-05-10T15:06:13;3.15;;;2.90;;
19675;SDS011;39539;52.202;9.876;2023-05-10T15:08:39;3.35;;;2.95;;
19675;SDS011;39539;52.202;9.876;2023-05-10T15:11:04;6.03;;;3.15;;
19675;SDS011;39539;52.202;9.876;2023-05-10T15:13:30;6.90;;;3.22;;
19675;SDS011;39539;52.202;9.876;2023-05-10T15:15:55;6.80;;;4.32;;
19675;SDS011;39539;52.202;9.876;2023-05-10T15:18:21;16.52;;;11.40;;
19675;SDS011;39539;52.202;9.876;2023-05-10T15:20:46;3.25;;;2.92;;
19675;SDS011;39539;52.202;9.876;2023-05-10T15:23:11;2.67;;;2.47;;
19675;SDS011;39539;52.202;9.876;2023-05-10T15:25:37;2.22;;;2.08;;